Time;durP1;ratioP1;P1;durP2;ratioP2;P2;SDS_P1;SDS_P2;PMS_P1;PMS_P2;Temp;Humidity;BMP_temperature;BMP_pressure;BME280_temperature;BME280_humidity;BME280_pressure;Samples;Min_cycle;Max_cycle;Signal;HPM_P1;HPM_P2
2022/04/30 00:00:57;;;;;;;11.77;6.17;;;12.70;1.00;;;;;;6300460;22;20918;-84
2022/04/30 00:03:26;;;;;;;12.40;6.70;;;12.70;1.00;;;;;;6278646;22;20420;-86
2022/04/30 00:05:53;;;;;;;9.77;5.57;;;12.70;1.00;;;;;;6278640;22;20937;-84
2022/04/30 00:08:21;;;;;;;10.90;5.47;;;12.60;1.00;;;;;;6283163;22;20429;-84
2022/04/30 00:10:48;;;;;;;13.23;5.97;;;12.70;1.00;;;;;;6296094;22;20422;-86
2022/04/30 00:13:25;;;;;;;;;;;;;;;;;;;;;
2022/04/30 00:15:53;;;;;;;9.97;5.70;;;12.60;1.00;;;;;;6267454;22;38748;-85
2022/04/30 00:18:22;;;;;;;11.67;6.20;;;12.60;1.00;;;;;;6272383;22;20497;-82
2022/04/30 00:20:50;;;;;;;12.73;5.53;;;12.60;1.00;;;;;;6296736;22;20406;-84
2022/04/30 00:23:22;;;;;;;11.80;6.03;;;12.50;1.00;;;;;;6296470;22;20596;-82
2022/04/30 00:25:51;;;;;;;13.37;6.07;;;12.50;1.00;;;;;;6290655;22;20411;-84
2022/04/30 00:28:19;;;;;;;11.10;5.60;;;12.50;1.00;;;;;;6297773;22;20455;-85
2022/04/30 00:30:46;;;;;;;10.70;5.50;;;12.50;1.00;;;;;;6298187;22;21285;-84
2022/04/30 00:33:20;;;;;;;9.80;5.47;;;12.50;1.00;;;;;;6282971;22;20497;-85
2022/04/30 00:35:48;;;;;;;11.87;6.30;;;12.50;1.00;;;;;;6285435;22;20425;-86
2022/04/30 00:38:15;;;;;;;10.13;5.87;;;12.50;1.00;;;;;;6298664;22;20430;-84
2022/04/30 00:40:43;;;;;;;13.77;6.70;;;12.50;1.00;;;;;;6296542;22;20438;-86
2022/04/30 00:43:11;;;;;;;16.40;7.20;;;12.50;1.00;;;;;;6298343;22;20945;-84
2022/04/30 00:45:44;;;;;;;11.17;6.50;;;12.40;1.00;;;;;;6299976;22;20427;-85
2022/04/30 00:48:11;;;;;;;13.43;6.33;;;12.40;1.00;;;;;;6298637;22;20481;-86
2022/04/30 00:50:41;;;;;;;13.77;6.23;;;12.40;1.00;;;;;;6298526;22;21114;-85
2022/04/30 00:53:08;;;;;;;12.50;6.40;;;12.40;1.00;;;;;;6258811;22;20454;-83
2022/04/30 00:55:39;;;;;;;11.80;6.63;;;12.40;1.00;;;;;;6297872;22;20426;-86
2022/04/30 00:58:07;;;;;;;12.57;6.17;;;12.40;1.00;;;;;;6302149;22;20427;-84
2022/04/30 01:00:40;;;;;;;12.43;6.63;;;12.30;1.00;;;;;;6301664;22;20434;-84
2022/04/30 01:03:07;;;;;;;11.17;6.93;;;12.40;1.00;;;;;;6302684;22;20435;-86
2022/04/30 01:05:34;;;;;;;14.43;7.07;;;12.40;1.00;;;;;;6302595;22;20425;-84
2022/04/30 01:08:02;;;;;;;10.37;6.30;;;12.30;1.00;;;;;;6298018;22;20439;-86
2022/04/30 01:10:31;;;;;;;11.77;6.90;;;12.30;1.00;;;;;;6287470;22;20473;-86
2022/04/30 01:13:01;;;;;;;12.60;6.90;;;12.40;1.00;;;;;;6284624;22;20806;-84
2022/04/30 01:15:28;;;;;;;13.07;6.60;;;12.40;1.00;;;;;;6260272;22;21145;-84
2022/04/30 01:17:55;;;;;;;14.70;5.40;;;12.40;1.00;;;;;;6276073;22;20584;-85
2022/04/30 01:20:22;;;;;;;12.00;5.97;;;12.40;1.00;;;;;;6270085;22;20424;-85
2022/04/30 01:23:06;;;;;;;15.70;6.70;;;12.30;1.00;;;;;;6269244;22;20560;-86
2022/04/30 01:25:33;;;;;;;10.80;6.40;;;12.30;1.00;;;;;;6300010;22;20400;-83
2022/04/30 01:28:02;;;;;;;11.20;6.27;;;12.20;1.00;;;;;;6300581;22;20477;-84
2022/04/30 01:30:29;;;;;;;13.63;5.90;;;12.30;1.00;;;;;;6289076;22;20430;-84
2022/04/30 01:38:27;;;;;;;10.13;5.23;;;12.10;1.00;;;;;;6301250;22;20511;-86
2022/04/30 01:40:54;;;;;;;10.30;4.73;;;12.10;1.00;;;;;;6301005;22;20434;-84
2022/04/30 01:43:23;;;;;;;15.07;5.30;;;12.10;1.00;;;;;;6295249;22;20428;-84
2022/04/30 01:45:51;;;;;;;8.70;4.60;;;12.00;1.00;;;;;;6244937;22;20424;-82
2022/04/30 01:48:18;;;;;;;10.67;5.30;;;12.00;1.00;;;;;;6275594;22;20532;-84
2022/04/30 01:50:45;;;;;;;13.53;5.90;;;12.00;1.00;;;;;;6263775;22;20753;-85
2022/04/30 01:53:15;;;;;;;9.00;4.47;;;11.90;1.00;;;;;;6297555;22;20496;-85
2022/04/30 01:55:43;;;;;;;10.40;5.40;;;11.90;1.00;;;;;;6300593;22;20443;-84
2022/04/30 01:58:10;;;;;;;10.10;5.43;;;11.90;1.00;;;;;;6301159;22;20435;-85
2022/04/30 02:00:37;;;;;;;11.40;5.50;;;11.80;1.00;;;;;;6301375;22;21509;-84
2022/04/30 02:03:06;;;;;;;9.10;4.80;;;11.80;1.00;;;;;;6284932;22;20422;-84
2022/04/30 02:05:34;;;;;;;9.70;5.40;;;11.80;1.00;;;;;;6300935;22;20913;-87
2022/04/30 02:08:06;;;;;;;11.77;5.17;;;11.80;1.00;;;;;;6299764;22;20418;-85
2022/04/30 02:10:35;;;;;;;12.00;5.20;;;11.70;1.00;;;;;;6301400;22;20629;-83
2022/04/30 02:13:06;;;;;;;11.47;6.83;;;11.70;1.00;;;;;;6298605;22;20829;-86
2022/04/30 02:15:34;;;;;;;15.90;7.47;;;11.70;1.00;;;;;;6299823;22;20537;-85
2022/04/30 02:18:03;;;;;;;12.80;5.87;;;11.60;1.00;;;;;;6257959;22;20442;-83
2022/04/30 02:20:33;;;;;;;10.23;5.70;;;11.60;1.00;;;;;;6300611;22;20440;-86
2022/04/30 02:23:02;;;;;;;9.97;5.13;;;11.60;1.00;;;;;;6258869;22;20451;-86
2022/04/30 02:25:31;;;;;;;12.10;6.30;;;11.60;1.00;;;;;;6300636;22;20476;-85
2022/04/30 02:27:59;;;;;;;11.47;5.40;;;11.60;1.00;;;;;;6288120;22;21157;-86
2022/04/30 02:30:29;;;;;;;11.47;5.33;;;11.60;1.00;;;;;;6257608;22;20515;-86
2022/04/30 02:33:01;;;;;;;9.00;4.70;;;11.50;1.00;;;;;;6300357;22;20526;-83
2022/04/30 02:35:33;;;;;;;11.77;6.00;;;11.50;1.00;;;;;;6286915;22;20479;-86
2022/04/30 02:38:05;;;;;;;11.40;5.50;;;11.50;1.00;;;;;;6303764;22;20429;-85
2022/04/30 02:40:33;;;;;;;14.47;5.53;;;11.50;1.00;;;;;;6302970;22;20469;-85
2022/04/30 02:43:04;;;;;;;13.73;5.20;;;11.50;1.00;;;;;;6299013;22;20561;-83
2022/04/30 02:45:32;;;;;;;12.27;5.47;;;11.40;1.00;;;;;;6301825;22;20421;-86
2022/04/30 02:48:02;;;;;;;9.10;4.37;;;11.40;1.00;;;;;;6302287;22;20438;-85
2022/04/30 02:50:29;;;;;;;10.13;5.37;;;11.40;1.00;;;;;;6300699;22;20460;-87
2022/04/30 02:52:56;;;;;;;10.00;4.70;;;11.40;1.00;;;;;;6271504;22;20476;-83
2022/04/30 02:55:23;;;;;;;10.83;5.07;;;11.40;1.00;;;;;;6297884;22;20620;-85
2022/04/30 03:00:40;;;;;;;36.07;25.63;;;11.20;1.00;;;;;;6300237;22;20430;-85
2022/04/30 03:03:08;;;;;;;10.30;5.03;;;11.20;1.00;;;;;;6300806;22;20437;-84
2022/04/30 03:05:39;;;;;;;9.60;4.90;;;11.20;1.00;;;;;;6303201;22;20513;-86
2022/04/30 03:08:11;;;;;;;9.83;4.77;;;11.10;1.00;;;;;;6259192;22;20451;-86
2022/04/30 03:10:45;;;;;;;14.87;4.70;;;11.10;1.00;;;;;;6288316;22;20407;-84
2022/04/30 03:13:13;;;;;;;12.80;4.37;;;11.10;1.00;;;;;;6291888;22;20434;-85
2022/04/30 03:15:44;;;;;;;11.23;4.83;;;11.00;1.00;;;;;;6302970;22;21303;-83
2022/04/30 03:23:41;;;;;;;10.20;5.27;;;11.00;1.00;;;;;;6276319;22;20383;-85
2022/04/30 03:26:09;;;;;;;9.80;4.37;;;10.90;1.00;;;;;;6281948;22;20525;-85
2022/04/30 03:28:37;;;;;;;10.27;4.60;;;10.90;1.00;;;;;;6302554;22;20449;-84
2022/04/30 03:31:05;;;;;;;11.57;5.70;;;10.90;1.00;;;;;;6284258;22;20430;-84
2022/04/30 03:33:31;;;;;;;10.07;5.53;;;10.90;1.00;;;;;;6300868;22;21329;-83
2022/04/30 03:36:00;;;;;;;11.17;5.90;;;10.80;1.00;;;;;;6302874;22;20420;-86
2022/04/30 03:38:32;;;;;;;11.10;4.90;;;10.80;1.00;;;;;;6278945;22;20498;-84
2022/04/30 03:41:01;;;;;;;9.03;4.23;;;10.70;1.00;;;;;;6267926;22;20456;-86
2022/04/30 03:43:28;;;;;;;9.67;4.97;;;10.70;1.00;;;;;;6300437;22;20434;-85
2022/04/30 03:45:54;;;;;;;11.30;5.10;;;10.70;1.00;;;;;;6301802;22;20480;-86
2022/04/30 03:48:22;;;;;;;11.97;5.20;;;10.60;1.00;;;;;;6246150;22;20390;-88
2022/04/30 03:50:49;;;;;;;8.40;3.87;;;10.60;1.00;;;;;;6300907;22;20469;-86
2022/04/30 03:53:16;;;;;;;11.23;4.90;;;10.50;1.00;;;;;;6299288;22;20515;-84
2022/04/30 03:55:43;;;;;;;10.23;4.87;;;10.40;1.00;;;;;;6300249;22;21101;-86
2022/04/30 03:58:10;;;;;;;11.87;5.07;;;10.40;1.00;;;;;;6300268;22;20430;-86
2022/04/30 04:00:37;;;;;;;10.70;4.33;;;10.40;1.00;;;;;;6287638;22;20423;-84
2022/04/30 04:03:04;;;;;;;9.70;4.50;;;10.30;1.00;;;;;;6265096;22;20442;-84
2022/04/30 04:05:34;;;;;;;8.50;4.07;;;10.40;1.00;;;;;;6266935;22;20415;-85
2022/04/30 04:08:10;;;;;;;10.20;5.47;;;10.40;1.00;;;;;;6230819;22;21028;-86
2022/04/30 04:10:44;;;;;;;12.93;5.87;;;10.40;1.00;;;;;;6266449;22;20430;-85
2022/04/30 04:18:56;;;;;;;;;;;;;;;;;;;;;
2022/04/30 04:21:24;;;;;;;10.10;4.77;;;10.60;1.00;;;;;;6228250;22;41553;-86
2022/04/30 04:26:46;;;;;;;9.77;5.37;;;10.70;1.00;;;;;;6282947;22;20424;-87
2022/04/30 04:29:16;;;;;;;17.17;5.20;;;10.70;1.00;;;;;;6244452;22;20600;-87
2022/04/30 04:31:45;;;;;;;9.37;4.77;;;10.60;1.00;;;;;;6279866;22;21122;-85
2022/04/30 04:34:13;;;;;;;10.80;5.00;;;10.70;1.00;;;;;;6236841;22;20426;-85
2022/04/30 04:36:56;;;;;;;;;;;;;;;;;;;;;
2022/04/30 04:39:23;;;;;;;10.67;5.13;;;10.70;1.00;;;;;;6217462;22;40855;-86
2022/04/30 04:42:06;;;;;;;9.87;5.47;;;10.80;1.00;;;;;;6244840;22;20407;-86
2022/04/30 04:44:33;;;;;;;8.40;4.40;;;10.90;1.00;;;;;;6253428;22;20490;-88
2022/04/30 04:47:24;;;;;;;13.20;5.00;;;10.90;1.00;;;;;;6237267;22;20407;-85
2022/04/30 04:49:53;;;;;;;13.23;5.70;;;10.90;1.00;;;;;;6223707;22;20411;-83
2022/04/30 04:52:30;;;;;;;9.20;4.20;;;10.90;1.00;;;;;;6254292;22;20533;-86
2022/04/30 04:55:06;;;;;;;19.83;7.67;;;11.00;1.00;;;;;;6238634;22;20593;-83
2022/04/30 04:57:34;;;;;;;12.97;5.07;;;11.00;1.00;;;;;;6291248;22;20484;-87
2022/04/30 05:00:05;;;;;;;10.63;5.00;;;11.00;1.00;;;;;;6241424;22;20395;-87
2022/04/30 05:02:33;;;;;;;10.53;4.50;;;11.10;1.00;;;;;;6249295;22;20407;-88
2022/04/30 05:05:05;;;;;;;9.77;4.67;;;11.10;1.00;;;;;;6267343;22;20398;-87
2022/04/30 05:07:34;;;;;;;11.30;4.70;;;11.10;1.00;;;;;;6281713;22;20484;-86
2022/04/30 05:10:04;;;;;;;12.33;5.40;;;11.20;1.00;;;;;;6252398;22;20441;-85
2022/04/30 05:12:33;;;;;;;9.10;4.10;;;11.20;1.00;;;;;;6254549;22;21109;-86
2022/04/30 05:15:04;;;;;;;13.97;5.40;;;11.30;1.00;;;;;;6280067;22;20434;-84
2022/04/30 05:17:33;;;;;;;11.20;5.23;;;11.40;1.00;;;;;;6252485;22;20902;-83
2022/04/30 05:20:05;;;;;;;10.03;4.90;;;11.40;1.00;;;;;;6267888;22;20414;-86
2022/04/30 05:22:34;;;;;;;12.53;5.70;;;11.50;1.00;;;;;;6277999;22;20424;-87
2022/04/30 05:25:04;;;;;;;9.27;4.30;;;11.50;1.00;;;;;;6248372;22;20470;-86
2022/04/30 05:27:45;;;;;;;9.80;4.97;;;11.60;1.00;;;;;;6246047;22;20485;-85
2022/04/30 05:30:14;;;;;;;10.10;4.70;;;11.70;1.00;;;;;;6233000;22;20438;-88
2022/04/30 05:32:43;;;;;;;8.90;4.13;;;11.80;1.00;;;;;;6247942;22;20439;-87
2022/04/30 05:35:15;;;;;;;11.40;4.67;;;11.90;1.00;;;;;;6241875;22;20456;-87
2022/04/30 05:37:43;;;;;;;10.00;4.40;;;11.90;1.00;;;;;;6238922;22;20435;-86
2022/04/30 05:40:13;;;;;;;8.20;3.60;;;12.00;1.00;;;;;;6250509;22;20443;-87
2022/04/30 05:42:42;;;;;;;8.87;4.73;;;12.10;1.00;;;;;;6247874;22;20929;-85
2022/04/30 05:45:14;;;;;;;8.57;4.30;;;12.20;1.00;;;;;;6274581;22;20454;-86
2022/04/30 05:47:56;;;;;;;;;;;;;;;;;;;;;
2022/04/30 05:50:23;;;;;;;9.20;4.17;;;12.30;1.00;;;;;;6233520;22;38228;-84
2022/04/30 05:52:54;;;;;;;14.63;5.10;;;12.30;1.00;;;;;;6249606;22;20806;-87
2022/04/30 05:55:23;;;;;;;9.63;4.50;;;12.30;1.00;;;;;;6267752;22;20391;-88
2022/04/30 05:57:55;;;;;;;10.00;5.20;;;12.40;1.00;;;;;;6240116;22;20430;-87
2022/04/30 06:00:25;;;;;;;10.23;4.80;;;12.40;1.00;;;;;;6249938;22;20433;-86
2022/04/30 06:02:55;;;;;;;9.87;5.00;;;12.50;1.00;;;;;;6250359;22;21136;-86
2022/04/30 06:05:24;;;;;;;9.80;4.50;;;12.70;1.00;;;;;;6237560;22;20426;-89
2022/04/30 06:07:55;;;;;;;16.03;4.67;;;12.90;1.00;;;;;;6249170;22;20416;-86
2022/04/30 06:10:24;;;;;;;10.17;4.20;;;12.90;1.00;;;;;;6241464;22;20435;-86
2022/04/30 06:12:53;;;;;;;7.90;3.87;;;12.90;1.00;;;;;;6250308;22;20648;-87
2022/04/30 06:15:33;;;;;;;8.73;4.40;;;13.00;1.00;;;;;;6229197;22;21018;-86
2022/04/30 06:18:15;;;;;;;8.10;4.00;;;13.10;1.00;;;;;;6274892;22;20420;-86
2022/04/30 06:20:44;;;;;;;8.43;3.77;;;13.10;1.00;;;;;;6240609;22;20447;-86
2022/04/30 06:23:26;;;;;;;;;;;;;;;;;;;;;
2022/04/30 06:25:53;;;;;;;8.07;4.20;;;13.20;1.00;;;;;;6267150;22;40654;-86
2022/04/30 06:28:41;;;;;;;10.30;4.43;;;13.40;1.00;;;;;;6241006;22;20412;-85
2022/04/30 06:31:14;;;;;;;14.57;5.83;;;13.50;1.00;;;;;;6237216;22;20912;-87
2022/04/30 06:33:48;;;;;;;23.00;14.40;;;13.60;1.00;;;;;;6254711;22;21192;-86
2022/04/30 06:36:23;;;;;;;10.43;4.50;;;13.70;1.00;;;;;;6259838;22;20447;-87
2022/04/30 06:38:54;;;;;;;8.60;3.80;;;13.70;1.00;;;;;;6252110;22;20380;-86
2022/04/30 06:41:36;;;;;;;11.50;5.07;;;13.70;1.00;;;;;;6243927;22;20417;-86
2022/04/30 06:44:04;;;;;;;9.17;4.33;;;13.70;1.00;;;;;;6232000;22;21189;-87
2022/04/30 06:46:33;;;;;;;9.10;4.33;;;13.80;1.00;;;;;;6254367;22;20891;-88
2022/04/30 06:49:04;;;;;;;10.77;4.63;;;13.90;1.00;;;;;;6242972;22;20479;-88
2022/04/30 06:51:46;;;;;;;10.03;4.70;;;13.90;1.00;;;;;;6260742;22;20459;-88
2022/04/30 06:57:23;;;;;;;9.03;4.50;;;14.00;1.00;;;;;;6250978;22;20434;-88
2022/04/30 07:01:24;;;;;;;10.27;4.37;;;14.00;1.00;;;;;;6229509;22;20417;-87
2022/04/30 07:03:08;;;;;;;8.20;4.20;;;14.10;1.00;;;;;;6241796;22;20451;-87
2022/04/30 07:05:35;;;;;;;14.30;4.57;;;14.20;1.00;;;;;;6237244;22;20800;-85
2022/04/30 07:08:03;;;;;;;10.87;4.60;;;14.20;1.00;;;;;;6263992;22;20448;-85
2022/04/30 07:10:34;;;;;;;9.23;4.67;;;14.40;1.00;;;;;;6258170;22;21557;-86
2022/04/30 07:13:15;;;;;;;8.77;4.20;;;14.60;1.00;;;;;;6257270;22;20421;-86
2022/04/30 07:15:44;;;;;;;10.80;4.80;;;14.80;1.00;;;;;;6259655;22;20430;-85
2022/04/30 07:18:16;;;;;;;12.87;7.00;;;14.80;1.00;;;;;;6242464;22;20445;-87
2022/04/30 07:20:45;;;;;;;8.47;4.70;;;14.80;1.00;;;;;;6279569;22;20409;-86
2022/04/30 07:23:14;;;;;;;9.97;5.40;;;14.90;1.00;;;;;;6245181;22;20440;-86
2022/04/30 07:25:45;;;;;;;10.10;4.80;;;14.90;1.00;;;;;;6262953;22;20436;-86
2022/04/30 07:28:14;;;;;;;8.97;4.50;;;15.00;1.00;;;;;;6241834;22;21283;-86
2022/04/30 07:30:43;;;;;;;10.90;5.00;;;15.20;1.00;;;;;;6303326;22;20942;-88
2022/04/30 07:33:14;;;;;;;12.67;5.27;;;15.30;1.00;;;;;;6265724;22;20567;-88
2022/04/30 07:36:26;;;;;;;;;;;;;;;;;;;;;
2022/04/30 08:01:33;;;;;;;13.20;6.10;;;16.60;1.00;;;;;;6052326;23;20436;-86
2022/04/30 08:04:34;;;;;;;10.57;6.10;;;16.60;1.00;;;;;;6156471;23;20443;-86
2022/04/30 08:25:56;;;;;;;;;;;;;;;;;;;;;
2022/04/30 08:28:36;;;;;;;;;;;;;;;;;;;;;
2022/04/30 08:31:15;;;;;;;12.80;7.20;;;17.70;1.00;;;;;;6183086;22;40575;-86
2022/04/30 08:33:46;;;;;;;13.33;8.47;;;17.80;1.00;;;;;;6239760;22;20470;-84
2022/04/30 08:36:14;;;;;;;14.80;8.87;;;17.90;1.00;;;;;;6277064;22;20482;-85
2022/04/30 08:39:06;;;;;;;;;;;;;;;;;;;;;
2022/04/30 08:44:45;;;;;;;13.60;7.17;;;18.10;1.00;;;;;;6220220;22;20445;-85
2022/04/30 08:57:46;;;;;;;20.47;8.80;;;18.80;1.00;;;;;;6151065;22;20425;-85
2022/04/30 09:06:34;;;;;;;13.77;7.73;;;19.00;1.00;;;;;;5906971;23;20449;-85
2022/04/30 09:09:25;;;;;;;12.77;6.60;;;18.90;1.00;;;;;;6118191;23;20438;-83
2022/04/30 09:12:05;;;;;;;12.57;6.37;;;18.90;1.00;;;;;;6129204;22;20429;-83
2022/04/30 09:15:02;;;;;;;11.57;6.37;;;18.90;1.00;;;;;;6234426;22;20978;-85
2022/04/30 09:18:04;;;;;;;11.20;6.80;;;19.00;1.00;;;;;;6208029;22;20925;-85
2022/04/30 09:20:45;;;;;;;11.90;5.73;;;19.00;1.00;;;;;;6244583;22;20456;-85
2022/04/30 09:23:45;;;;;;;;;;;;;;;;;;;;;
2022/04/30 09:26:26;;;;;;;;;;;;;;;;;;;;;
2022/04/30 09:28:55;;;;;;;12.07;5.63;;;19.50;1.00;;;;;;6221947;22;40738;-83
2022/04/30 09:31:25;;;;;;;11.80;5.13;;;19.50;1.00;;;;;;6216678;22;20538;-83
2022/04/30 09:33:56;;;;;;;13.30;5.80;;;19.70;1.00;;;;;;6229613;22;20944;-83
2022/04/30 09:39:36;;;;;;;12.70;5.30;;;20.10;1.00;;;;;;6209143;22;20571;-83
2022/04/30 09:42:16;;;;;;;10.00;4.73;;;20.40;1.00;;;;;;6194212;22;20525;-83
2022/04/30 09:44:55;;;;;;;12.63;5.47;;;20.60;1.00;;;;;;6233159;22;20504;-85
2022/04/30 09:47:34;;;;;;;14.57;6.37;;;21.00;1.00;;;;;;6207167;22;20423;-86
2022/04/30 10:13:07;;;;;;;;;;;;;;;;;;;;;
2022/04/30 10:15:57;;;;;;;11.17;5.50;;;25.30;1.00;;;;;;6282584;22;38334;-87
2022/04/30 10:18:56;;;;;;;11.43;5.23;;;25.80;1.00;;;;;;6286090;22;20438;-89
2022/04/30 10:21:47;;;;;;;10.40;4.70;;;25.50;1.00;;;;;;6211873;22;20457;-89
2022/04/30 10:28:06;;;;;;;10.40;4.57;;;25.10;1.00;;;;;;6243583;22;20882;-89
2022/04/30 11:21:16;;;;;;;9.40;4.77;;;24.60;1.00;;;;;;5881776;24;20407;-87
2022/04/30 11:27:04;;;;;;;9.80;5.50;;;24.20;1.00;;;;;;5943311;23;21039;-88
2022/04/30 11:35:56;;;;;;;9.40;5.43;;;24.80;1.00;;;;;;6067234;23;20440;-88
2022/04/30 11:42:03;;;;;;;14.00;5.20;;;25.40;1.00;;;;;;6227409;22;21398;-89
2022/04/30 11:47:36;;;;;;;11.33;4.90;;;25.90;1.00;;;;;;6186384;22;20916;-88
2022/04/30 11:50:16;;;;;;;9.33;4.93;;;25.70;1.00;;;;;;6277749;22;20504;-88
2022/04/30 11:55:54;;;;;;;;;;;;;;;;;;;;;
2022/04/30 11:59:06;;;;;;;9.57;4.93;;;25.90;1.00;;;;;;6261925;22;41095;-86
2022/04/30 12:01:55;;;;;;;12.27;5.10;;;26.00;1.00;;;;;;6186134;23;20800;-87
2022/04/30 12:31:32;;;;;;;11.63;5.77;;;25.50;1.00;;;;;;5963182;23;20427;-86
2022/04/30 20:05:31;;;;;;;11.40;7.50;;;14.60;1.00;;;;;;6188223;22;20429;-83
2022/04/30 20:08:04;;;;;;;13.53;7.20;;;14.50;1.00;;;;;;6277798;22;20535;-85
2022/04/30 20:18:43;;;;;;;9.77;6.10;;;14.20;1.00;;;;;;6275253;22;20462;-84
2022/04/30 20:21:11;;;;;;;10.23;6.50;;;14.20;1.00;;;;;;6275541;22;20449;-85
2022/04/30 20:23:39;;;;;;;12.33;6.53;;;14.10;1.00;;;;;;6276640;22;20441;-84
2022/04/30 20:26:11;;;;;;;10.50;7.30;;;14.10;1.00;;;;;;6277112;22;20413;-84
2022/04/30 20:28:40;;;;;;;11.07;5.90;;;14.00;1.00;;;;;;6274629;22;20364;-85
2022/04/30 20:36:59;;;;;;;11.93;5.87;;;13.90;1.00;;;;;;6276574;22;20430;-85
2022/04/30 20:39:29;;;;;;;11.73;6.80;;;13.80;1.00;;;;;;6275127;22;20426;-84
2022/04/30 20:41:56;;;;;;;12.47;6.50;;;13.80;1.00;;;;;;6274432;22;20431;-83
2022/04/30 20:44:23;;;;;;;11.10;6.30;;;13.80;1.00;;;;;;6277902;22;20432;-84
2022/04/30 20:46:49;;;;;;;12.80;6.50;;;13.80;1.00;;;;;;6275313;22;20469;-84
2022/04/30 20:49:19;;;;;;;12.13;6.30;;;13.70;1.00;;;;;;6276916;22;20395;-83
2022/04/30 20:51:49;;;;;;;12.80;6.40;;;13.70;1.00;;;;;;6278681;22;20437;-84
2022/04/30 20:54:19;;;;;;;12.37;6.63;;;13.70;1.00;;;;;;6275534;22;20401;-84
2022/04/30 20:56:52;;;;;;;10.53;6.27;;;13.60;1.00;;;;;;6248126;22;20482;-84
2022/04/30 20:59:20;;;;;;;11.40;5.87;;;13.50;1.00;;;;;;6245850;22;20419;-84
2022/04/30 21:01:49;;;;;;;10.47;6.20;;;13.50;1.00;;;;;;6242012;22;20701;-83
2022/04/30 21:04:21;;;;;;;9.77;6.03;;;13.60;1.00;;;;;;6242195;22;20403;-84
2022/04/30 21:09:42;;;;;;;17.07;7.30;;;13.40;1.00;;;;;;6240729;22;20418;-83
2022/04/30 21:12:12;;;;;;;13.63;7.10;;;13.40;1.00;;;;;;6233530;22;20439;-84
2022/04/30 21:14:41;;;;;;;13.07;6.37;;;13.30;1.00;;;;;;6233293;22;21112;-84
2022/04/30 21:17:10;;;;;;;9.20;5.20;;;13.30;1.00;;;;;;6232243;22;20434;-83
2022/04/30 21:19:39;;;;;;;12.90;9.30;;;13.30;1.00;;;;;;6240446;22;20442;-84
2022/04/30 21:22:07;;;;;;;11.13;7.30;;;13.20;1.00;;;;;;6243089;22;20416;-84
2022/04/30 21:24:35;;;;;;;10.87;6.00;;;13.10;1.00;;;;;;6243199;22;21408;-85
2022/04/30 21:27:09;;;;;;;11.70;6.23;;;13.10;1.00;;;;;;6243602;22;20406;-85
2022/04/30 21:29:37;;;;;;;16.27;6.80;;;13.10;1.00;;;;;;6244932;22;20411;-84
2022/04/30 21:32:06;;;;;;;11.70;6.83;;;13.10;1.00;;;;;;6242642;22;20423;-83
2022/04/30 21:34:38;;;;;;;12.17;6.33;;;13.10;1.00;;;;;;6218554;22;20427;-85
2022/04/30 21:37:11;;;;;;;23.60;6.80;;;13.10;1.00;;;;;;6246928;22;20401;-84
2022/04/30 21:39:38;;;;;;;9.20;5.63;;;13.10;1.00;;;;;;6242154;22;20422;-85
2022/04/30 21:42:08;;;;;;;9.77;6.10;;;13.00;1.00;;;;;;6246030;22;20476;-85
2022/04/30 21:44:43;;;;;;;10.73;6.20;;;13.00;1.00;;;;;;6243048;22;20430;-84
2022/04/30 21:47:10;;;;;;;15.90;8.43;;;13.00;1.00;;;;;;6241755;22;20449;-83
2022/04/30 21:49:43;;;;;;;13.33;7.90;;;13.00;1.00;;;;;;6245344;22;20482;-85
2022/04/30 21:52:12;;;;;;;12.20;7.73;;;12.90;1.00;;;;;;6245553;22;20417;-85
2022/04/30 22:00:25;;;;;;;12.23;8.40;;;12.80;1.00;;;;;;6159813;22;20438;-83
